Map

Track Data

SID SEASON NUMBER BASIN SUBBASIN NAME ISO_TIME NATURE LAT LON WMO_WIND WMO_PRES WMO_AGENCY TRACK_TYPE DIST2LAND LANDFALL IFLAG USA_AGENCY USA_ATCF_ID USA_LAT USA_LON USA_RECORD USA_STATUS USA_WIND USA_PRES USA_SSHS USA_R34_NE USA_R34_SE USA_R34_SW USA_R34_NW USA_R50_NE USA_R50_SE USA_R50_SW USA_R50_NW USA_R64_NE USA_R64_SE USA_R64_SW USA_R64_NW USA_POCI USA_ROCI USA_RMW USA_EYE TOKYO_LAT TOKYO_LON TOKYO_GRADE TOKYO_WIND TOKYO_PRES TOKYO_R50_DIR TOKYO_R50_LONG TOKYO_R50_SHORT TOKYO_R30_DIR TOKYO_R30_LONG TOKYO_R30_SHORT TOKYO_LAND CMA_LAT CMA_LON CMA_CAT CMA_WIND CMA_PRES HKO_LAT HKO_LON HKO_CAT HKO_WIND HKO_PRES NEWDELHI_LAT NEWDELHI_LON NEWDELHI_GRADE NEWDELHI_WIND NEWDELHI_PRES NEWDELHI_CI NEWDELHI_DP NEWDELHI_POCI REUNION_LAT REUNION_LON REUNION_TYPE REUNION_WIND REUNION_PRES REUNION_TNUM REUNION_CI REUNION_RMW REUNION_R34_NE REUNION_R34_SE REUNION_R34_SW REUNION_R34_NW REUNION_R50_NE REUNION_R50_SE REUNION_R50_SW REUNION_R50_NW REUNION_R64_NE REUNION_R64_SE REUNION_R64_SW REUNION_R64_NW BOM_LAT BOM_LON BOM_TYPE BOM_WIND BOM_PRES BOM_TNUM BOM_CI BOM_RMW BOM_R34_NE BOM_R34_SE BOM_R34_SW BOM_R34_NW BOM_R50_NE BOM_R50_SE BOM_R50_SW BOM_R50_NW BOM_R64_NE BOM_R64_SE BOM_R64_SW BOM_R64_NW BOM_ROCI BOM_POCI BOM_EYE BOM_POS_METHOD BOM_PRES_METHOD NADI_LAT NADI_LON NADI_CAT NADI_WIND NADI_PRES WELLINGTON_LAT WELLINGTON_LON WELLINGTON_WIND WELLINGTON_PRES DS824_LAT DS824_LON DS824_STAGE DS824_WIND DS824_PRES TD9636_LAT TD9636_LON TD9636_STAGE TD9636_WIND TD9636_PRES TD9635_LAT TD9635_LON TD9635_WIND TD9635_PRES TD9635_ROCI NEUMANN_LAT NEUMANN_LON NEUMANN_CLASS NEUMANN_WIND NEUMANN_PRES MLC_LAT MLC_LON MLC_CLASS MLC_WIND MLC_PRES USA_GUST BOM_GUST BOM_GUST_PER REUNION_GUST REUNION_GUST_PER USA_SEAHGT USA_SEARAD_NE USA_SEARAD_SE USA_SEARAD_SW USA_SEARAD_NW STORM_SPEED STORM_DIR
1966233N13340 1966 58 NA NA FAITH 1966-08-21 00:00:00 TS 12.9000 -20.5000 25 hurdat_atl main 381 381 O_____________ hurdat_atl AL061966 12.9000 -20.5000 TD 25 -1 18 283
1966233N13340 1966 58 NA NA FAITH 1966-08-21 03:00:00 TS 13.0981 -21.3898 main 457 457 P_____________ AL061966 13.0981 -21.3898 TD 25 -1 18 283
1966233N13340 1966 58 NA NA FAITH 1966-08-21 06:00:00 TS 13.3000 -22.3000 25 hurdat_atl main 541 541 O_____________ hurdat_atl AL061966 13.3000 -22.3000 TD 25 -1 19 283
1966233N13340 1966 58 NA NA FAITH 1966-08-21 09:00:00 TS 13.5072 -23.2426 main 629 629 P_____________ AL061966 13.5072 -23.2426 TD 25 -1 19 282
1966233N13340 1966 58 NA NA FAITH 1966-08-21 12:00:00 TS 13.7000 -24.2000 25 hurdat_atl main 731 731 O_____________ hurdat_atl AL061966 13.7000 -24.2000 TD 25 -1 19 281
1966233N13340 1966 58 NA NA FAITH 1966-08-21 15:00:00 TS 13.8571 -25.1502 main 834 834 P_____________ AL061966 13.8571 -25.1502 TD 25 -1 19 279
1966233N13340 1966 58 NA NA FAITH 1966-08-21 18:00:00 TS 14.0000 -26.1000 25 1006 hurdat_atl main 930 930 O_____________ hurdat_atl AL061966 14.0000 -26.1000 TD 25 1006 -1 19 279
1966233N13340 1966 58 NA NA FAITH 1966-08-21 21:00:00 TS 14.1496 -27.0501 main 1036 1035 P_____________ AL061966 14.1496 -27.0501 TD 30 -1 19 279
1966233N13340 1966 58 NA NA FAITH 1966-08-22 00:00:00 TS 14.3000 -28.0000 35 hurdat_atl main 1131 1131 O_____________ hurdat_atl AL061966 14.3000 -28.0000 TS 35 0 19 279
1966233N13340 1966 58 NA NA FAITH 1966-08-22 03:00:00 TS 14.4495 -28.9427 main 1227 1227 P_____________ AL061966 14.4495 -28.9427 TS 35 0 19 279
1966233N13340 1966 58 NA NA FAITH 1966-08-22 06:00:00 TS 14.6000 -29.9000 35 hurdat_atl main 1334 1334 O_____________ hurdat_atl AL061966 14.6000 -29.9000 TS 35 0 19 279
1966233N13340 1966 58 NA NA FAITH 1966-08-22 09:00:00 TS 14.7647 -30.8924 main 1441 1441 P_____________ AL061966 14.7647 -30.8924 TS 35 0 20 279
1966233N13340 1966 58 NA NA FAITH 1966-08-22 12:00:00 TS 14.9000 -31.9000 35 hurdat_atl main 1548 1548 O_____________ hurdat_atl AL061966 14.9000 -31.9000 TS 35 0 20 276
1966233N13340 1966 58 NA NA FAITH 1966-08-22 15:00:00 TS 14.9647 -32.9077 main 1655 1655 P_____________ AL061966 14.9647 -32.9077 TS 37 0 19 273
1966233N13340 1966 58 NA NA FAITH 1966-08-22 18:00:00 TS 15.0000 -33.9000 40 hurdat_atl main 1763 1763 O_____________ hurdat_atl AL061966 15.0000 -33.9000 TS 40 0 19 273
1966233N13340 1966 58 NA NA FAITH 1966-08-22 21:00:00 TS 15.0494 -34.8501 main 1870 1870 P_____________ AL061966 15.0494 -34.8501 TS 45 0 18 273
1966233N13340 1966 58 NA NA FAITH 1966-08-23 00:00:00 TS 15.1000 -35.8000 50 hurdat_atl main 1967 1967 O_____________ hurdat_atl AL061966 15.1000 -35.8000 TS 50 0 19 273
1966233N13340 1966 58 NA NA FAITH 1966-08-23 03:00:00 TS 15.1572 -36.7924 main 2002 1925 P_____________ AL061966 15.1572 -36.7924 TS 50 0 19 273
1966233N13340 1966 58 NA NA FAITH 1966-08-23 06:00:00 TS 15.2000 -37.8000 50 hurdat_atl main 1917 1842 O_____________ hurdat_atl AL061966 15.2000 -37.8000 TS 50 0 19 271
1966233N13340 1966 58 NA NA FAITH 1966-08-23 09:00:00 TS 15.1996 -38.8002 main 1834 1761 P_____________ AL061966 15.1996 -38.8002 TS 57 0 19 270
1966233N13340 1966 58 NA NA FAITH 1966-08-23 12:00:00 TS 15.2000 -39.8000 65 hurdat_atl main 1753 1684 O_____________ hurdat_atl AL061966 15.2000 -39.8000 HU 65 1 19 271
1966233N13340 1966 58 NA NA FAITH 1966-08-23 15:00:00 TS 15.2496 -40.7998 main 1676 1619 P_____________ AL061966 15.2496 -40.7998 HU 65 1 19 273
1966233N13340 1966 58 NA NA FAITH 1966-08-23 18:00:00 TS 15.3000 -41.8000 65 hurdat_atl main 1612 1543 O_____________ hurdat_atl AL061966 15.3000 -41.8000 HU 65 1 19 272
1966233N13340 1966 58 NA NA FAITH 1966-08-23 21:00:00 TS 15.3072 -42.8076 main 1543 1486 P_____________ AL061966 15.3072 -42.8076 HU 72 1 19 270
1966233N13340 1966 58 NA NA FAITH 1966-08-24 00:00:00 TS 15.3000 -43.8000 80 hurdat_atl main 1480 1423 O_____________ hurdat_atl AL061966 15.3000 -43.8000 HU 80 1 19 270
1966233N13340 1966 58 NA NA FAITH 1966-08-24 03:00:00 TS 15.2994 -44.7500 main 1423 1365 P_____________ AL061966 15.2994 -44.7500 HU 80 1 18 270
1966233N13340 1966 58 NA NA FAITH 1966-08-24 06:00:00 TS 15.3000 -45.7000 80 hurdat_atl main 1359 1307 O_____________ hurdat_atl AL061966 15.3000 -45.7000 HU 80 1 19 269
1966233N13340 1966 58 NA NA FAITH 1966-08-24 09:00:00 TS 15.2771 -46.6854 main 1302 1256 P_____________ AL061966 15.2771 -46.6854 HU 80 1 19 270
1966233N13340 1966 58 NA NA FAITH 1966-08-24 12:00:00 TS 15.3000 -47.7000 80 992 hurdat_atl main 1251 1216 O_____________ hurdat_atl AL061966 15.3000 -47.7000 HU 80 992 1 20 274
1966233N13340 1966 58 NA NA FAITH 1966-08-24 15:00:00 TS 15.4195 -48.7350 main 1216 1191 P_____________ AL061966 15.4195 -48.7350 HU 82 992 1 20 278
1966233N13340 1966 58 NA NA FAITH 1966-08-24 18:00:00 TS 15.6000 -49.8000 85 hurdat_atl main 1187 1165 I_____________ hurdat_atl AL061966 15.6000 -49.8000 HU 85 992 2 21 280
1966233N13340 1966 58 NA NA FAITH 1966-08-24 21:00:00 TS 15.7997 -50.8999 main 1165 1149 P_____________ AL061966 15.7997 -50.8999 HU 85 992 2 22 281
1966233N13340 1966 58 NA NA FAITH 1966-08-25 00:00:00 TS 16.0000 -52.0000 85 993 hurdat_atl main 1140 1055 O_____________ hurdat_atl AL061966 16.0000 -52.0000 HU 85 993 2 21 280
1966233N13340 1966 58 NA NA FAITH 1966-08-25 03:00:00 TS 16.1569 -53.0578 main 1053 982 P_____________ AL061966 16.1569 -53.0578 HU 87 994 2 20 278
1966233N13340 1966 58 NA NA FAITH 1966-08-25 06:00:00 TS 16.3000 -54.1000 90 995 hurdat_atl main 974 902 O_____________ hurdat_atl AL061966 16.3000 -54.1000 HU 90 995 2 21 278
1966233N13340 1966 58 NA NA FAITH 1966-08-25 09:00:00 TS 16.4499 -55.1800 main 894 846 P_____________ AL061966 16.4499 -55.1800 HU 90 990 2 20 278
1966233N13340 1966 58 NA NA FAITH 1966-08-25 12:00:00 TS 16.6000 -56.2000 90 986 hurdat_atl main 839 798 O_____________ hurdat_atl AL061966 16.6000 -56.2000 HU 90 986 2 19 279
1966233N13340 1966 58 NA NA FAITH 1966-08-25 15:00:00 TS 16.7419 -57.0952 main 792 770 P_____________ AL061966 16.7419 -57.0952 HU 90 988 2 17 280
1966233N13340 1966 58 NA NA FAITH 1966-08-25 18:00:00 TS 16.9000 -57.9000 90 990 hurdat_atl main 770 751 O_____________ hurdat_atl AL061966 16.9000 -57.9000 HU 90 990 2 16 283
1966233N13340 1966 58 NA NA FAITH 1966-08-25 21:00:00 TS 17.0921 -58.6726 main 741 664 P_____________ AL061966 17.0921 -58.6726 HU 90 991 2 15 286
1966233N13340 1966 58 NA NA FAITH 1966-08-26 00:00:00 TS 17.3000 -59.4000 90 hurdat_atl main 664 587 I_____________ hurdat_atl AL061966 17.3000 -59.4000 HU 90 993 2 14 286
1966233N13340 1966 58 NA NA FAITH 1966-08-26 03:00:00 TS 17.4847 -60.1078 main 587 510 P_____________ AL061966 17.4847 -60.1078 HU 87 995 2 14 287
1966233N13340 1966 58 NA NA FAITH 1966-08-26 06:00:00 TS 17.7000 -60.8000 85 997 hurdat_atl main 510 433 O_____________ hurdat_atl AL061966 17.7000 -60.8000 HU 85 997 2 14 290
1966233N13340 1966 58 NA CS FAITH 1966-08-26 09:00:00 TS 17.9772 -61.4927 main 433 358 P_____________ AL061966 17.9772 -61.4927 HU 82 996 1 15 294
1966233N13340 1966 58 NA CS FAITH 1966-08-26 12:00:00 TS 18.3000 -62.2000 80 995 hurdat_atl main 358 285 O_____________ hurdat_atl AL061966 18.3000 -62.2000 HU 80 995 1 15 296
1966233N13340 1966 58 NA CS FAITH 1966-08-26 15:00:00 TS 18.6424 -62.9501 main 275 211 P_____________ AL061966 18.6424 -62.9501 HU 77 993 1 16 296
1966233N13340 1966 58 NA NA FAITH 1966-08-26 18:00:00 TS 19.0000 -63.7000 75 hurdat_atl main 211 161 I_____________ hurdat_atl AL061966 19.0000 -63.7000 HU 75 991 1 16 297
1966233N13340 1966 58 NA NA FAITH 1966-08-26 21:00:00 TS 19.3498 -64.4227 main 161 148 P_____________ AL061966 19.3498 -64.4227 HU 75 989 1 15 298
1966233N13340 1966 58 NA NA FAITH 1966-08-27 00:00:00 TS 19.7000 -65.1000 75 987 hurdat_atl main 154 151 O_____________ hurdat_atl AL061966 19.7000 -65.1000 HU 75 987 1 14 300
1966233N13340 1966 58 NA NA FAITH 1966-08-27 03:00:00 TS 20.0571 -65.7153 main 190 190 P_____________ AL061966 20.0571 -65.7153 HU 75 990 1 13 302
1966233N13340 1966 58 NA NA FAITH 1966-08-27 06:00:00 TS 20.4000 -66.3000 75 993 hurdat_atl main 223 223 O_____________ hurdat_atl AL061966 20.4000 -66.3000 HU 75 993 1 13 300
1966233N13340 1966 58 NA NA FAITH 1966-08-27 09:00:00 TS 20.7073 -66.9003 main 257 257 P_____________ AL061966 20.7073 -66.9003 HU 75 991 1 13 298
1966233N13340 1966 58 NA NA FAITH 1966-08-27 12:00:00 TS 21.0000 -67.5000 75 989 hurdat_atl main 267 252 O_____________ hurdat_atl AL061966 21.0000 -67.5000 HU 75 989 1 13 298
1966233N13340 1966 58 NA NA FAITH 1966-08-27 15:00:00 TS 21.3074 -68.1076 main 256 251 P_____________ AL061966 21.3074 -68.1076 HU 75 986 1 13 298
1966233N13340 1966 58 NA NA FAITH 1966-08-27 18:00:00 TS 21.6000 -68.7000 75 983 hurdat_atl main 261 256 O_____________ hurdat_atl AL061966 21.6000 -68.7000 HU 75 983 1 12 296
1966233N13340 1966 58 NA NA FAITH 1966-08-27 21:00:00 TS 21.8500 -69.2877 main 256 256 P_____________ AL061966 21.8500 -69.2877 HU 77 981 1 11 296
1966233N13340 1966 58 NA NA FAITH 1966-08-28 00:00:00 TS 22.1000 -69.8000 80 979 hurdat_atl main 270 267 O_____________ hurdat_atl AL061966 22.1000 -69.8000 HU 80 979 1 10 302
1966233N13340 1966 58 NA NA FAITH 1966-08-28 03:00:00 TS 22.3924 -70.2175 main 293 292 P_____________ AL061966 22.3924 -70.2175 HU 85 976 2 9 313
1966233N13340 1966 58 NA NA FAITH 1966-08-28 06:00:00 TS 22.7000 -70.5000 90 973 hurdat_atl main 307 305 O_____________ hurdat_atl AL061966 22.7000 -70.5000 HU 90 973 2 7 328
1966233N13340 1966 58 NA NA FAITH 1966-08-28 09:00:00 TS 23.0149 -70.6378 main 318 318 P_____________ AL061966 23.0149 -70.6378 HU 100 967 3 6 343
1966233N13340 1966 58 NA NA FAITH 1966-08-28 12:00:00 TS 23.3000 -70.7000 110 962 hurdat_atl main 333 333 O_____________ hurdat_atl AL061966 23.3000 -70.7000 HU 110 962 3 5 342
1966233N13340 1966 58 NA NA FAITH 1966-08-28 15:00:00 TS 23.5225 -70.8075 main 342 342 P_____________ AL061966 23.5225 -70.8075 HU 110 959 3 4 336
1966233N13340 1966 58 NA NA FAITH 1966-08-28 18:00:00 TS 23.7000 -70.9000 110 957 hurdat_atl main 353 353 O_____________ hurdat_atl AL061966 23.7000 -70.9000 HU 110 957 3 4 337
1966233N13340 1966 58 NA NA FAITH 1966-08-28 21:00:00 TS 23.8500 -70.9576 main 355 355 P_____________ AL061966 23.8500 -70.9576 HU 107 956 3 3 344
1966233N13340 1966 58 NA NA FAITH 1966-08-29 00:00:00 TS 24.0000 -71.0000 105 956 hurdat_atl main 374 374 O_____________ hurdat_atl AL061966 24.0000 -71.0000 HU 105 956 3 3 346
1966233N13340 1966 58 NA NA FAITH 1966-08-29 03:00:00 TS 24.1850 -71.0426 main 393 387 P_____________ AL061966 24.1850 -71.0426 HU 102 958 3 4 348
1966233N13340 1966 58 NA NA FAITH 1966-08-29 06:00:00 TS 24.4000 -71.1000 100 960 hurdat_atl main 407 407 O_____________ hurdat_atl AL061966 24.4000 -71.1000 HU 100 960 3 5 344
1966233N13340 1966 58 NA NA FAITH 1966-08-29 09:00:00 TS 24.6500 -71.1925 main 432 432 P_____________ AL061966 24.6500 -71.1925 HU 100 961 3 5 340
1966233N13340 1966 58 NA NA FAITH 1966-08-29 12:00:00 TS 24.9000 -71.3000 100 963 hurdat_atl main 448 448 O_____________ hurdat_atl AL061966 24.9000 -71.3000 HU 100 963 3 5 338
1966233N13340 1966 58 NA NA FAITH 1966-08-29 15:00:00 TS 25.1000 -71.3926 main 465 465 P_____________ AL061966 25.1000 -71.3926 HU 100 963 3 4 336
1966233N13340 1966 58 NA NA FAITH 1966-08-29 18:00:00 TS 25.3000 -71.5000 100 963 hurdat_atl main 483 483 O_____________ hurdat_atl AL061966 25.3000 -71.5000 HU 100 963 3 5 333
1966233N13340 1966 58 NA NA FAITH 1966-08-29 21:00:00 TS 25.5425 -71.6425 main 501 501 P_____________ AL061966 25.5425 -71.6425 HU 97 963 3 6 331
1966233N13340 1966 58 NA NA FAITH 1966-08-30 00:00:00 TS 25.8000 -71.8000 95 963 hurdat_atl main 528 528 O_____________ hurdat_atl AL061966 25.8000 -71.8000 HU 95 963 2 6 331
1966233N13340 1966 58 NA NA FAITH 1966-08-30 03:00:00 TS 26.0425 -71.9501 main 546 546 P_____________ AL061966 26.0425 -71.9501 HU 95 966 2 6 332
1966233N13340 1966 58 NA NA FAITH 1966-08-30 06:00:00 TS 26.3000 -72.1000 95 970 hurdat_atl main 577 577 O_____________ hurdat_atl AL061966 26.3000 -72.1000 HU 95 970 2 6 334
1966233N13340 1966 58 NA NA FAITH 1966-08-30 09:00:00 TS 26.6000 -72.2500 main 589 589 P_____________ AL061966 26.6000 -72.2500 HU 95 968 2 7 336
1966233N13340 1966 58 NA NA FAITH 1966-08-30 12:00:00 TS 26.9000 -72.4000 95 966 hurdat_atl main 593 588 O_____________ hurdat_atl AL061966 26.9000 -72.4000 HU 95 966 2 6 334
1966233N13340 1966 58 NA NA FAITH 1966-08-30 15:00:00 TS 27.1500 -72.5501 main 583 582 P_____________ AL061966 27.1500 -72.5501 HU 92 966 2 6 332
1966233N13340 1966 58 NA NA FAITH 1966-08-30 18:00:00 TS 27.4000 -72.7000 90 hurdat_atl main 587 583 I_____________ hurdat_atl AL061966 27.4000 -72.7000 HU 90 966 2 6 334
1966233N13340 1966 58 NA NA FAITH 1966-08-30 21:00:00 TS 27.7000 -72.8500 main 584 584 P_____________ AL061966 27.7000 -72.8500 HU 90 966 2 7 336
1966233N13340 1966 58 NA NA FAITH 1966-08-31 00:00:00 TS 28.0000 -73.0000 90 967 hurdat_atl main 593 590 O_____________ hurdat_atl AL061966 28.0000 -73.0000 HU 90 967 2 6 334
1966233N13340 1966 58 NA NA FAITH 1966-08-31 03:00:00 TS 28.2350 -73.1502 main 588 588 P_____________ AL061966 28.2350 -73.1502 HU 90 972 2 6 332
1966233N13340 1966 58 NA NA FAITH 1966-08-31 06:00:00 TS 28.5000 -73.3000 90 hurdat_atl main 601 600 I_____________ hurdat_atl AL061966 28.5000 -73.3000 HU 90 977 2 7 334
1966233N13340 1966 58 NA NA FAITH 1966-08-31 09:00:00 TS 28.8475 -73.4944 main 607 607 P_____________ AL061966 28.8475 -73.4944 HU 90 982 2 8 342
1966233N13340 1966 58 NA NA FAITH 1966-08-31 12:00:00 TS 29.3000 -73.6000 90 988 hurdat_atl main 639 610 O_____________ hurdat_atl AL061966 29.3000 -73.6000 HU 90 988 2 10 357
1966233N13340 1966 58 NA NA FAITH 1966-08-31 15:00:00 TS 29.8698 -73.5397 main 604 555 P_____________ AL061966 29.8698 -73.5397 HU 90 975 2 12 12
1966233N13340 1966 58 NA NA FAITH 1966-08-31 18:00:00 TS 30.5000 -73.3000 90 963 hurdat_atl main 555 523 O_____________ hurdat_atl AL061966 30.5000 -73.3000 HU 90 963 2 14 24
1966233N13340 1966 58 NA NA FAITH 1966-08-31 21:00:00 TS 31.1001 -72.9026 main 523 506 P_____________ AL061966 31.1001 -72.9026 HU 90 963 2 14 33
1966233N13340 1966 58 NA NA FAITH 1966-09-01 00:00:00 TS 31.7000 -72.4000 90 hurdat_atl main 506 498 I_____________ hurdat_atl AL061966 31.7000 -72.4000 HU 90 963 2 15 35
1966233N13340 1966 58 NA NA FAITH 1966-09-01 03:00:00 TS 32.3073 -71.9145 main 499 492 P_____________ AL061966 32.3073 -71.9145 HU 92 963 2 15 35
1966233N13340 1966 58 NA NA FAITH 1966-09-01 06:00:00 TS 32.9000 -71.4000 95 963 hurdat_atl main 495 488 O_____________ hurdat_atl AL061966 32.9000 -71.4000 HU 95 963 2 15 38
1966233N13340 1966 58 NA NA FAITH 1966-09-01 09:00:00 TS 33.4648 -70.8570 main 491 491 P_____________ AL061966 33.4648 -70.8570 HU 95 963 2 14 40
1966233N13340 1966 58 NA NA FAITH 1966-09-01 12:00:00 TS 34.0000 -70.3000 95 963 hurdat_atl main 513 513 O_____________ hurdat_atl AL061966 34.0000 -70.3000 HU 95 963 2 14 41
1966233N13340 1966 58 NA NA FAITH 1966-09-01 15:00:00 TS 34.5146 -69.7567 main 536 536 P_____________ AL061966 34.5146 -69.7567 HU 95 960 2 14 42
1966233N13340 1966 58 NA NA FAITH 1966-09-01 18:00:00 TS 35.0000 -69.2000 95 957 hurdat_atl main 576 576 O_____________ hurdat_atl AL061966 35.0000 -69.2000 HU 95 957 2 13 45
1966233N13340 1966 58 NA NA FAITH 1966-09-01 21:00:00 TS 35.4723 -68.6071 main 622 622 P_____________ AL061966 35.4723 -68.6071 HU 95 957 2 13 47
1966233N13340 1966 58 NA NA FAITH 1966-09-02 00:00:00 TS 35.9000 -68.0000 95 958 hurdat_atl main 665 638 O_____________ hurdat_atl AL061966 35.9000 -68.0000 HU 95 958 2 13 50
1966233N13340 1966 58 NA NA FAITH 1966-09-02 03:00:00 TS 36.2867 -67.4294 main 641 627 P_____________ AL061966 36.2867 -67.4294 HU 95 2 12 54
1966233N13340 1966 58 NA NA FAITH 1966-09-02 06:00:00 TS 36.6000 -66.8000 95 hurdat_atl main 630 624 O_____________ hurdat_atl AL061966 36.6000 -66.8000 HU 95 2 12 63
1966233N13340 1966 58 NA NA FAITH 1966-09-02 09:00:00 TS 36.8440 -66.0747 main 639 634 P_____________ AL061966 36.8440 -66.0747 HU 95 2 13 73
1966233N13340 1966 58 NA NA FAITH 1966-09-02 12:00:00 TS 37.0000 -65.2000 95 hurdat_atl main 665 665 O_____________ hurdat_atl AL061966 37.0000 -65.2000 HU 95 2 15 81
1966233N13340 1966 58 NA NA FAITH 1966-09-02 15:00:00 TS 37.0785 -64.1968 main 713 713 P_____________ AL061966 37.0785 -64.1968 HU 92 2 18 87
1966233N13340 1966 58 NA NA FAITH 1966-09-02 18:00:00 TS 37.1000 -63.0000 90 hurdat_atl main 738 738 O_____________ hurdat_atl AL061966 37.1000 -63.0000 HU 90 2 21 90
1966233N13340 1966 58 NA NA FAITH 1966-09-02 21:00:00 TS 37.0770 -61.6151 main 777 777 P_____________ AL061966 37.0770 -61.6151 HU 90 2 23 90
1966233N13340 1966 58 NA NA FAITH 1966-09-03 00:00:00 TS 37.1000 -60.1000 90 hurdat_atl main 836 836 O_____________ hurdat_atl AL061966 37.1000 -60.1000 HU 90 2 24 86
1966233N13340 1966 58 NA NA FAITH 1966-09-03 03:00:00 TS 37.2389 -58.5567 main 900 900 P_____________ AL061966 37.2389 -58.5567 HU 90 2 25 81
1966233N13340 1966 58 NA NA FAITH 1966-09-03 06:00:00 TS 37.5000 -57.0000 90 950 hurdat_atl main 921 920 O_____________ hurdat_atl AL061966 37.5000 -57.0000 HU 90 950 2 25 77
1966233N13340 1966 58 NA NA FAITH 1966-09-03 09:00:00 TS 37.8232 -55.4825 main 944 923 P_____________ AL061966 37.8232 -55.4825 HU 90 2 25 71
1966233N13340 1966 58 NA NA FAITH 1966-09-03 12:00:00 TS 38.3000 -54.0000 90 hurdat_atl main 923 857 O_____________ hurdat_atl AL061966 38.3000 -54.0000 HU 90 2 25 65
1966233N13340 1966 58 NA NA FAITH 1966-09-03 15:00:00 TS 38.8929 -52.5455 main 858 793 P_____________ AL061966 38.8929 -52.5455 HU 90 2 27 58
1966233N13340 1966 58 NA NA FAITH 1966-09-03 18:00:00 TS 39.7000 -51.1000 90 hurdat_atl main 785 720 O_____________ hurdat_atl AL061966 39.7000 -51.1000 HU 90 2 29 51
1966233N13340 1966 58 NA NA FAITH 1966-09-03 21:00:00 TS 40.6931 -49.6174 main 716 660 P_____________ AL061966 40.6931 -49.6174 HU 90 2 32 46
1966233N13340 1966 58 NA NA FAITH 1966-09-04 00:00:00 TS 41.9000 -48.1000 90 hurdat_atl main 660 637 O_____________ hurdat_atl AL061966 41.9000 -48.1000 HU 90 2 34 42
1966233N13340 1966 58 NA NA FAITH 1966-09-04 03:00:00 TS 43.2530 -46.5257 main 639 638 P_____________ AL061966 43.2530 -46.5257 HU 90 2 36 40
1966233N13340 1966 58 NA NA FAITH 1966-09-04 06:00:00 TS 44.7000 -44.9000 90 hurdat_atl main 667 667 O_____________ hurdat_atl AL061966 44.7000 -44.9000 HU 90 2 37 39
1966233N13340 1966 58 NA NA FAITH 1966-09-04 09:00:00 TS 46.1047 -43.2290 main 728 728 P_____________ AL061966 46.1047 -43.2290 HU 90 2 37 40
1966233N13340 1966 58 NA NA FAITH 1966-09-04 12:00:00 TS 47.5000 -41.5000 90 954 hurdat_atl main 829 829 O_____________ hurdat_atl AL061966 47.5000 -41.5000 HU 90 954 2 36 41
1966233N13340 1966 58 NA NA FAITH 1966-09-04 15:00:00 TS 48.8621 -39.6851 main 963 963 P_____________ AL061966 48.8621 -39.6851 HU 90 2 36 42
1966233N13340 1966 58 NA NA FAITH 1966-09-04 18:00:00 TS 50.2000 -37.8000 90 hurdat_atl main 1108 1056 O_____________ hurdat_atl AL061966 50.2000 -37.8000 HU 90 2 36 43
1966233N13340 1966 58 NA NA FAITH 1966-09-04 21:00:00 TS 51.5188 -35.8416 main 1053 988 P_____________ AL061966 51.5188 -35.8416 HU 90 2 36 44
1966233N13340 1966 58 NA NA FAITH 1966-09-05 00:00:00 TS 52.8000 -33.8000 90 hurdat_atl main 986 955 O_____________ hurdat_atl AL061966 52.8000 -33.8000 HU 90 2 36 45
1966233N13340 1966 58 NA NA FAITH 1966-09-05 03:00:00 TS 54.0331 -31.6557 main 959 955 P_____________ AL061966 54.0331 -31.6557 HU 90 2 35 47
1966233N13340 1966 58 NA NA FAITH 1966-09-05 06:00:00 TS 55.2000 -29.4000 90 hurdat_atl main 972 864 O_____________ hurdat_atl AL061966 55.2000 -29.4000 HU 90 2 35 49
1966233N13340 1966 58 NA NA FAITH 1966-09-05 09:00:00 TS 56.3212 -26.9976 main 862 726 P_____________ AL061966 56.3212 -26.9976 HU 90 2 34 52
1966233N13340 1966 58 NA NA FAITH 1966-09-05 12:00:00 TS 57.3000 -24.5000 90 hurdat_atl main 724 617 O_____________ hurdat_atl AL061966 57.3000 -24.5000 HU 90 2 31 57
1966233N13340 1966 58 NA NA FAITH 1966-09-05 15:00:00 TS 58.0145 -22.0994 main 617 522 P_____________ AL061966 58.0145 -22.0994 HU 90 2 30 63
1966233N13340 1966 58 NA NA FAITH 1966-09-05 18:00:00 TS 58.7000 -19.4000 90 hurdat_atl main 521 443 O_____________ hurdat_atl AL061966 58.7000 -19.4000 HU 90 2 36 64
1966233N13340 1966 58 NA NA FAITH 1966-09-05 21:00:00 TS 59.6133 -15.7971 main 447 382 P_____________ AL061966 59.6133 -15.7971 HU 90 2 41 66
1966233N13340 1966 58 NA NA FAITH 1966-09-06 00:00:00 TS 60.4000 -12.0000 90 hurdat_atl main 373 290 O_____________ hurdat_atl AL061966 60.4000 -12.0000 HU 90 2 37 72
1966233N13340 1966 58 NA NA FAITH 1966-09-06 03:00:00 TS 60.7690 -8.63719 main 290 275 P_____________ AL061966 60.7690 -8.63719 HU 77 1 30 77
1966233N13340 1966 58 NA NA FAITH 1966-09-06 06:00:00 TS 61.1000 -6.00000 65 hurdat_atl main 292 291 O_____________ hurdat_atl AL061966 61.1000 -6.00000 HU 65 1 23 62
1966233N13340 1966 58 NA NA FAITH 1966-09-06 09:00:00 TS 61.8254 -4.46300 main 359 359 P_____________ AL061966 61.8254 -4.46300 HU 60 0 20 45
1966233N13340 1966 58 NA NA FAITH 1966-09-06 12:00:00 ET 62.5000 -3.00000 55 hurdat_atl main 417 292 O_____________ hurdat_atl AL061966 62.5000 -3.00000 EX 55 -4 21 67
1966233N13340 1966 58 NA NA FAITH 1966-09-06 15:00:00 ET 62.6403 -0.340173 main 282 149 P_____________ AL061966 62.6403 -0.340173 EX 55 -4 25 88
1966233N13340 1966 58 NA NA FAITH 1966-09-06 18:00:00 ET 62.6000 2.50000 55 hurdat_atl main 144 68 O_____________ hurdat_atl AL061966 62.6000 2.50000 EX 55 -4 24 89
1966233N13340 1966 58 NA NA FAITH 1966-09-06 21:00:00 ET 62.6963 4.89261 main 67 5 P_____________ AL061966 62.6963 4.89261 EX 47 -4 21 82
1966233N13340 1966 58 NA NA FAITH 1966-09-07 00:00:00 ET 62.9000 7.00000 40 hurdat_atl main 0 O_____________ hurdat_atl AL061966 62.9000 7.00000 EX 40 -4 20 78

About IBTrACS Database

This database is a web-friendly format of International Best Track Archive for Climate Stewardship (IBTrACS), a global best track data archive curated by NOAA dating back to 1842.

Updated: 2021-12-01